Almira, Washington
Current Conditions -  °F | °C
As of 4:16 AM on Saturday 20 Dec 2014 (Local Time) from KEPH Reporting Station
Light Rain Light Rain  
Wind Chill:   Ceiling: 2800
Heat Index:   Visibility: 6mi
Dew Point:   Wind: 5mph
Humidity: 97%   Direction: 20°NNE
Pressure: 29.88"   Gusts: NA
Location:  47.71°N, 118.94°W
Report Text: KEPH 201216Z AUTO 02004KT 6SM -RA BR SCT008 BKN028 OVC043 02/02 A2988 RMK AO2 RAB1158 P0000 T00220017
Loading
Personal Weather Stations






























Interactive Weather Map New forecast layout! Learn more

10-Day Weather Forecast

Advertisements
Track Severe Weather on mobile